createdAt,value
2023-04-09T00:06:27.298Z,30.67
2023-04-09T00:20:33.300Z,29.73
2023-04-09T00:27:34.850Z,29.20
2023-04-09T00:34:36.685Z,33.70
2023-04-09T00:41:38.213Z,27.25
2023-04-09T00:48:40.311Z,24.25
2023-04-09T00:55:41.935Z,31.20
2023-04-09T01:02:43.697Z,31.23
2023-04-09T01:09:54.193Z,27.75
2023-04-09T01:17:02.905Z,27.63
2023-04-09T01:24:47.281Z,31.85
2023-04-09T01:31:57.803Z,28.10
2023-04-09T01:39:00.685Z,41.00
2023-04-09T01:46:03.202Z,30.63
2023-04-09T01:53:04.834Z,31.23
2023-04-09T02:00:07.340Z,32.35
2023-04-09T02:07:23.269Z,37.85
2023-04-09T02:14:26.518Z,30.48
2023-04-09T02:21:28.552Z,27.27
2023-04-09T02:28:30.229Z,29.95
2023-04-09T02:35:31.853Z,33.33
2023-04-09T02:42:33.544Z,28.05
2023-04-09T02:49:35.121Z,32.55
2023-04-09T02:56:36.743Z,29.10
2023-04-09T03:03:40.081Z,34.20
2023-04-09T03:10:41.730Z,30.50
2023-04-09T03:17:43.344Z,34.35
2023-04-09T03:24:44.960Z,33.05
2023-04-09T03:31:46.670Z,31.73
2023-04-09T03:38:48.916Z,28.65
2023-04-09T03:46:00.510Z,36.28
2023-04-09T03:53:02.242Z,30.98
2023-04-09T04:00:07.688Z,32.30
2023-04-09T04:07:24.906Z,28.83
2023-04-09T04:14:35.171Z,51.50
2023-04-09T04:21:45.790Z,72.88
2023-04-09T04:28:47.405Z,113.85
2023-04-09T04:36:07.520Z,100.35
2023-04-09T04:43:16.367Z,123.88
2023-04-09T04:50:18.748Z,123.50
2023-04-09T04:57:32.344Z,104.32
2023-04-09T05:04:37.722Z,101.85
2023-04-09T05:11:41.013Z,87.50
2023-04-09T05:18:48.983Z,79.10
2023-04-09T05:25:50.899Z,71.65
2023-04-09T05:33:01.010Z,59.33
2023-04-09T05:40:03.872Z,79.03
2023-04-09T05:47:05.836Z,80.82
2023-04-09T05:54:15.852Z,79.77
2023-04-09T06:01:17.554Z,69.32
2023-04-09T06:08:19.268Z,71.30
2023-04-09T06:15:21.166Z,74.10
2023-04-09T06:22:22.780Z,53.85
2023-04-09T06:29:24.481Z,54.88
2023-04-09T06:36:27.303Z,59.42
2023-04-09T06:43:28.836Z,52.05
2023-04-09T06:50:30.617Z,92.82
2023-04-09T06:57:32.252Z,68.78
2023-04-09T07:04:33.829Z,123.10
2023-04-09T07:11:35.421Z,129.55
2023-04-09T07:18:37.020Z,84.10
2023-04-09T07:25:38.667Z,79.30
2023-04-09T07:32:40.312Z,70.75
2023-04-09T07:39:42.648Z,46.70
2023-04-09T07:46:44.232Z,41.10
2023-04-09T07:53:45.826Z,42.03
2023-04-09T08:00:48.545Z,36.50
2023-04-09T08:07:53.305Z,55.83
2023-04-09T08:14:54.877Z,110.40
2023-04-09T08:21:56.623Z,96.65
2023-04-09T08:28:58.232Z,40.47
2023-04-09T08:36:01.366Z,34.83
2023-04-09T08:43:05.660Z,32.67
2023-04-09T08:50:07.626Z,34.85
2023-04-09T08:57:09.335Z,28.00
2023-04-09T09:04:11.358Z,38.42
2023-04-09T09:11:28.122Z,28.90
2023-04-09T09:18:48.225Z,30.15
2023-04-09T09:25:49.820Z,32.17
2023-04-09T09:33:11.693Z,26.92
2023-04-09T09:40:26.601Z,22.77
2023-04-09T09:47:29.337Z,28.70
2023-04-09T09:54:33.645Z,24.80
2023-04-09T10:01:36.568Z,27.02
2023-04-09T10:08:38.346Z,23.35
2023-04-09T10:15:39.864Z,25.05
2023-04-09T10:22:41.538Z,25.77
2023-04-09T10:29:45.164Z,17.25
2023-04-09T10:36:51.418Z,25.70
2023-04-09T10:43:52.948Z,20.85
2023-04-09T10:50:54.507Z,20.38
2023-04-09T10:57:56.058Z,21.85
2023-04-09T11:05:27.003Z,24.13
2023-04-09T11:12:28.636Z,24.70
2023-04-09T11:19:30.137Z,22.80
2023-04-09T11:26:35.776Z,23.75
2023-04-09T11:33:37.344Z,18.55
2023-04-09T11:40:48.523Z,19.83
2023-04-09T11:47:50.701Z,21.85
2023-04-09T11:54:52.269Z,19.42
2023-04-09T12:01:53.930Z,21.30
2023-04-09T12:08:59.054Z,20.60
2023-04-09T12:16:00.895Z,20.67
2023-04-09T12:23:04.171Z,20.75
2023-04-09T12:30:06.447Z,22.40
2023-04-09T12:37:08.034Z,20.48
2023-04-09T12:44:10.027Z,39.35
2023-04-09T12:51:12.416Z,25.67
2023-04-09T12:58:14.004Z,25.02
2023-04-09T13:05:15.671Z,25.33
2023-04-09T13:12:17.379Z,24.48
2023-04-09T13:19:18.931Z,51.63
2023-04-09T13:26:20.541Z,50.47
2023-04-09T13:33:22.138Z,26.30
2023-04-09T13:40:23.687Z,93.13
2023-04-09T13:47:25.566Z,40.97
2023-04-09T13:54:27.279Z,48.17
2023-04-09T14:01:30.101Z,26.95
2023-04-09T14:08:31.834Z,22.40
2023-04-09T14:15:34.819Z,23.83
2023-04-09T14:22:36.504Z,23.08
2023-04-09T14:29:38.084Z,22.13
2023-04-09T14:36:39.670Z,21.00
2023-04-09T14:43:41.258Z,20.58
2023-04-09T14:50:43.007Z,18.80
2023-04-09T14:57:44.549Z,19.02
2023-04-09T15:04:46.181Z,16.95
2023-04-09T15:11:47.801Z,18.83
2023-04-09T15:18:51.948Z,21.42
2023-04-09T15:25:53.900Z,17.10
2023-04-09T15:32:55.482Z,17.73
2023-04-09T15:39:57.119Z,20.60
2023-04-09T15:46:58.688Z,20.05
2023-04-09T15:54:00.364Z,17.75
2023-04-09T16:01:07.011Z,19.73
2023-04-09T16:08:09.333Z,18.48
2023-04-09T16:15:11.164Z,15.73
2023-04-09T16:22:13.276Z,35.38
2023-04-09T16:29:16.369Z,14.95
2023-04-09T16:36:17.909Z,15.93
2023-04-09T16:43:19.456Z,15.82
2023-04-09T16:50:21.340Z,17.77
2023-04-09T16:57:22.975Z,17.95
2023-04-09T17:04:24.825Z,15.40
2023-04-09T17:11:26.476Z,16.10
2023-04-09T17:18:28.313Z,17.88
2023-04-09T17:25:29.838Z,18.55
2023-04-09T17:32:31.492Z,56.28
2023-04-09T17:39:33.394Z,29.55
2023-04-09T17:46:36.068Z,20.90
2023-04-09T17:53:37.642Z,21.95
2023-04-09T18:00:39.638Z,22.02
2023-04-09T18:07:41.186Z,22.48
2023-04-09T18:14:43.350Z,33.30
2023-04-09T18:21:44.968Z,21.60
2023-04-09T18:28:46.496Z,22.88
2023-04-09T18:35:48.246Z,29.58
2023-04-09T18:42:52.345Z,29.20
2023-04-09T18:49:53.893Z,24.75
2023-04-09T18:56:57.352Z,26.98
2023-04-09T19:03:59.064Z,25.90
2023-04-09T19:11:00.744Z,26.52
2023-04-09T19:18:02.347Z,26.42
2023-04-09T19:25:04.138Z,27.92
2023-04-09T19:32:06.101Z,24.63
2023-04-09T19:39:08.439Z,25.90
2023-04-09T19:46:10.066Z,25.15
2023-04-09T19:53:11.615Z,23.17
2023-04-09T20:00:14.627Z,31.50
2023-04-09T20:07:16.135Z,30.30
2023-04-09T20:14:17.894Z,30.55
2023-04-09T20:21:19.549Z,26.33
2023-04-09T20:28:21.871Z,25.52
2023-04-09T20:35:23.450Z,25.52
2023-04-09T20:42:25.002Z,28.73
2023-04-09T20:49:27.741Z,25.50
2023-04-09T20:56:29.740Z,24.77
2023-04-09T21:03:31.489Z,27.15
2023-04-09T21:10:33.189Z,26.13
2023-04-09T21:17:34.816Z,31.33
2023-04-09T21:24:36.628Z,28.33
2023-04-09T21:31:38.222Z,23.60
2023-04-09T21:38:39.754Z,23.17
2023-04-09T21:45:41.411Z,27.05
2023-04-09T21:52:44.881Z,21.90
2023-04-09T21:59:46.503Z,25.58
2023-04-09T22:06:48.125Z,22.27
2023-04-09T22:13:49.698Z,24.25
2023-04-09T22:20:51.369Z,24.50
2023-04-09T22:27:53.279Z,26.15
2023-04-09T22:34:54.828Z,21.52
2023-04-09T22:41:56.368Z,23.10
2023-04-09T22:49:04.604Z,18.48
2023-04-09T22:56:07.157Z,19.55
2023-04-09T23:03:09.150Z,18.10
2023-04-09T23:10:14.116Z,18.98
2023-04-09T23:17:15.644Z,20.10
2023-04-09T23:24:17.542Z,18.20
2023-04-09T23:31:19.132Z,20.55
2023-04-09T23:38:20.669Z,19.02
2023-04-09T23:45:23.691Z,25.20
2023-04-09T23:52:26.653Z,20.15
2023-04-09T23:59:31.016Z,18.40
